createdAt,value
2019-03-18T00:03:38.730Z,2.52
2019-03-18T00:09:33.754Z,2.65
2019-03-18T00:15:28.739Z,2.92
2019-03-18T00:21:23.753Z,2.8
2019-03-18T00:27:18.780Z,3.07
2019-03-18T00:33:13.775Z,2.48
2019-03-18T00:39:08.762Z,2.58
2019-03-18T00:45:14.012Z,2.43
2019-03-18T00:50:58.762Z,2.55
2019-03-18T00:56:53.782Z,3.06
2019-03-18T01:02:49.591Z,2.88
2019-03-18T01:08:43.761Z,2.78
2019-03-18T01:14:38.812Z,2.62
2019-03-18T01:20:33.772Z,3.05
2019-03-18T01:26:28.772Z,3.02
2019-03-18T01:32:23.783Z,2.56
2019-03-18T01:38:18.848Z,2.03
2019-03-18T01:44:13.782Z,2.2
2019-03-18T01:50:08.788Z,2.77
2019-03-18T01:56:03.781Z,2.27
2019-03-18T02:01:58.785Z,2.38
2019-03-18T02:07:53.853Z,2.03
2019-03-18T02:13:48.795Z,2.16
2019-03-18T02:19:43.832Z,1.77
2019-03-18T02:25:38.831Z,1.6
2019-03-18T02:31:33.807Z,1.54
2019-03-18T02:37:28.844Z,1.74
2019-03-18T02:43:23.823Z,1.91
2019-03-18T02:49:18.834Z,2.39
2019-03-18T02:55:13.809Z,2.08
2019-03-18T03:01:08.830Z,2.01
2019-03-18T03:07:03.867Z,2.13
2019-03-18T03:12:58.815Z,2.23
2019-03-18T03:18:53.826Z,2.16
2019-03-18T03:24:48.849Z,1.59
2019-03-18T03:30:43.878Z,1.7
2019-03-18T03:36:38.887Z,1.46
2019-03-18T03:42:33.870Z,1.73
2019-03-18T03:48:28.864Z,1.65
2019-03-18T03:54:23.863Z,1.66
2019-03-18T04:00:18.917Z,1.53
2019-03-18T04:06:13.873Z,1.63
2019-03-18T04:12:08.858Z,1.78
2019-03-18T04:18:03.867Z,1.56
2019-03-18T04:23:58.875Z,1.93
2019-03-18T04:29:53.868Z,1.76
2019-03-18T04:35:48.883Z,1.96
2019-03-18T04:41:43.881Z,2.01
2019-03-18T04:47:38.869Z,1.92
2019-03-18T04:53:33.875Z,1.87
2019-03-18T04:59:28.878Z,2.03
2019-03-18T05:05:23.889Z,2.16
2019-03-18T05:11:18.879Z,1.72
2019-03-18T05:17:25.767Z,1.5
2019-03-18T05:23:08.908Z,1.37
2019-03-18T05:29:03.953Z,1.62
2019-03-18T05:34:58.918Z,1.64
2019-03-18T05:40:53.911Z,1.54
2019-03-18T05:46:48.907Z,3.3
2019-03-18T05:52:43.905Z,8.67
2019-03-18T05:58:39.014Z,4.07
2019-03-18T06:04:33.913Z,2.1
2019-03-18T06:10:28.918Z,1.71
2019-03-18T06:16:23.973Z,1.9
2019-03-18T06:22:18.949Z,2.8
2019-03-18T06:28:13.974Z,2.07
2019-03-18T06:34:08.925Z,1.64
2019-03-18T06:40:03.926Z,1.8
2019-03-18T06:45:58.954Z,1.66
2019-03-18T06:51:53.937Z,1.66
2019-03-18T06:57:48.985Z,1.91
2019-03-18T07:03:43.985Z,1.86
2019-03-18T07:09:38.948Z,1.98
2019-03-18T07:15:33.942Z,1.68
2019-03-18T07:21:28.948Z,2.54
2019-03-18T07:27:23.997Z,2.85
2019-03-18T07:33:18.951Z,2.23
2019-03-18T07:39:14.014Z,1.57
2019-03-18T07:45:08.955Z,1.81
2019-03-18T07:51:04.001Z,2.18
2019-03-18T07:56:58.992Z,2.97
2019-03-18T08:02:53.978Z,2.51
2019-03-18T08:08:48.989Z,1.98
2019-03-18T08:14:44.024Z,2.7
2019-03-18T08:20:39.005Z,1.8
2019-03-18T08:26:33.988Z,2
2019-03-18T08:32:28.993Z,2.21
2019-03-18T08:38:23.986Z,2.12
2019-03-18T08:44:19.054Z,2.3
2019-03-18T08:50:14.012Z,2.52
2019-03-18T08:56:09.021Z,2.94
2019-03-18T09:02:04.001Z,2.82
2019-03-18T09:07:59.056Z,3.1
2019-03-18T09:13:54.022Z,2.25
2019-03-18T09:19:49.018Z,2.5
2019-03-18T09:25:44.080Z,2.44
2019-03-18T09:31:39.011Z,2.28
2019-03-18T09:37:34.061Z,2.3
2019-03-18T09:43:29.012Z,2.91
2019-03-18T09:49:24.066Z,2.56
2019-03-18T09:55:19.034Z,2.56
2019-03-18T10:01:14.069Z,2.29
2019-03-18T10:07:09.050Z,2.66
2019-03-18T10:13:04.085Z,1.96
2019-03-18T10:18:59.068Z,2.04
2019-03-18T10:24:54.068Z,1.87
2019-03-18T10:30:49.090Z,1.84
2019-03-18T10:36:44.068Z,1.85
2019-03-18T10:42:39.072Z,2.22
2019-03-18T10:48:34.100Z,2.01
2019-03-18T10:54:31.002Z,3.68
2019-03-18T11:00:24.090Z,2.43
2019-03-18T11:06:19.114Z,2.04
2019-03-18T11:12:14.093Z,3.46
2019-03-18T11:18:09.105Z,3.09
2019-03-18T11:24:04.124Z,2.36
2019-03-18T11:29:59.083Z,2.2
2019-03-18T11:35:55.712Z,1.91
2019-03-18T11:41:49.107Z,2.19
2019-03-18T11:47:44.107Z,1.77
2019-03-18T11:53:39.127Z,1.73
2019-03-18T11:59:34.110Z,2.46
2019-03-18T12:05:29.130Z,1.93
2019-03-18T12:11:24.178Z,2.07
2019-03-18T12:17:19.120Z,2.48
2019-03-18T12:23:14.156Z,1.92
2019-03-18T12:29:09.164Z,2.17
2019-03-18T12:35:04.137Z,3.03
2019-03-18T12:40:59.131Z,2.52
2019-03-18T12:46:54.154Z,2.92
2019-03-18T12:52:49.199Z,1.38
2019-03-18T12:58:44.184Z,1.49
2019-03-18T13:04:39.158Z,1.33
2019-03-18T13:10:34.158Z,3.55
2019-03-18T13:16:29.159Z,1.46
2019-03-18T13:22:24.156Z,3.59
2019-03-18T13:28:19.185Z,1.78
2019-03-18T13:34:14.167Z,3.92
2019-03-18T13:40:09.165Z,6.17
2019-03-18T13:46:04.179Z,4.99
2019-03-18T13:51:59.174Z,11.97
2019-03-18T13:57:54.178Z,8.49
2019-03-18T14:03:49.224Z,4.81
2019-03-18T14:09:44.176Z,8.49
2019-03-18T14:15:39.226Z,7.86
2019-03-18T14:21:34.205Z,12.69
2019-03-18T14:27:29.184Z,14.04
2019-03-18T14:33:24.196Z,9.25
2019-03-18T14:39:19.203Z,3.4
2019-03-18T14:45:14.232Z,2.77
2019-03-18T14:51:09.189Z,11.24
2019-03-18T14:57:04.212Z,2.4
2019-03-18T15:02:59.206Z,7.63
2019-03-18T15:08:54.237Z,8.79
2019-03-18T15:14:49.260Z,6.47
2019-03-18T15:20:44.237Z,10.51
2019-03-18T15:26:39.227Z,13.58
2019-03-18T15:32:34.241Z,10.58
2019-03-18T15:38:29.245Z,3.28
2019-03-18T15:44:24.223Z,10.49
2019-03-18T15:50:19.235Z,5.64
2019-03-18T15:56:14.227Z,4.16
2019-03-18T16:02:09.253Z,3.76
2019-03-18T16:08:04.240Z,5.02
2019-03-18T16:13:59.277Z,7.82
2019-03-18T16:19:54.314Z,6.98
2019-03-18T16:25:49.267Z,4.32
2019-03-18T16:31:44.313Z,7.11
2019-03-18T16:37:39.286Z,3.98
2019-03-18T16:43:34.246Z,5.85
2019-03-18T16:49:29.286Z,1.96
2019-03-18T16:55:24.304Z,1.8
2019-03-18T17:01:19.303Z,4.73
2019-03-18T17:07:14.340Z,9.98
2019-03-18T17:13:09.282Z,5.8
2019-03-18T17:19:04.341Z,3.54
2019-03-18T17:24:59.279Z,5.64
2019-03-18T17:30:54.307Z,7.08
2019-03-18T17:36:49.296Z,8.37
2019-03-18T17:42:44.293Z,3.6
2019-03-18T17:48:39.302Z,2.74
2019-03-18T17:54:34.295Z,3.37
2019-03-18T18:00:32.278Z,3.66
2019-03-18T18:06:24.321Z,1.86
2019-03-18T18:12:19.293Z,3.09
2019-03-18T18:18:14.297Z,3.95
2019-03-18T18:24:09.320Z,3.73
2019-03-18T18:30:04.309Z,1.81
2019-03-18T18:35:59.336Z,5.29
2019-03-18T18:41:54.337Z,3.17
2019-03-18T18:47:49.335Z,2.66
2019-03-18T18:53:44.341Z,2.41
2019-03-18T18:59:39.345Z,2.29
2019-03-18T19:05:34.346Z,4.48
2019-03-18T19:11:29.433Z,2.08
2019-03-18T19:17:24.382Z,4.04
2019-03-18T19:23:19.412Z,3.75
2019-03-18T19:29:14.345Z,2.34
2019-03-18T19:35:09.353Z,2.83
2019-03-18T19:41:04.370Z,0.55
2019-03-18T19:46:59.373Z,0.73
2019-03-18T19:52:54.394Z,1.69
2019-03-18T19:58:49.383Z,1.97
2019-03-18T20:04:44.364Z,4.25
2019-03-18T20:10:39.373Z,1.72
2019-03-18T20:16:34.385Z,1.84
2019-03-18T20:22:29.387Z,1.43
2019-03-18T20:28:24.394Z,0.9
2019-03-18T20:34:21.312Z,0.93
2019-03-18T20:40:14.401Z,2.43
2019-03-18T20:46:09.434Z,2.15
2019-03-18T20:52:04.382Z,1.18
2019-03-18T20:57:59.384Z,1.36
2019-03-18T21:03:54.400Z,1.68
2019-03-18T21:09:49.437Z,1.13
2019-03-18T21:15:44.412Z,1.09
2019-03-18T21:21:39.424Z,1.08
2019-03-18T21:27:34.478Z,0.84
2019-03-18T21:33:29.420Z,1.58
2019-03-18T21:39:24.422Z,1.26
2019-03-18T21:45:19.468Z,0.65
2019-03-18T21:51:14.427Z,1.98
2019-03-18T21:57:09.414Z,0.84
2019-03-18T22:03:04.432Z,1.86
2019-03-18T22:08:59.458Z,1.04
2019-03-18T22:14:54.464Z,1.39
2019-03-18T22:20:49.450Z,1.39
2019-03-18T22:26:44.433Z,1.78
2019-03-18T22:32:39.526Z,0.87
2019-03-18T22:38:34.451Z,1.19
2019-03-18T22:44:29.459Z,0.8
2019-03-18T22:50:24.493Z,1.78
2019-03-18T22:56:19.469Z,1.37
2019-03-18T23:02:14.504Z,1.16
2019-03-18T23:08:09.473Z,1.39
2019-03-18T23:14:04.473Z,2.23
2019-03-18T23:19:59.459Z,2.72
2019-03-18T23:25:54.461Z,1.12
2019-03-18T23:31:49.478Z,1.58
2019-03-18T23:37:44.467Z,1.24
2019-03-18T23:43:39.537Z,1.68
2019-03-18T23:49:34.516Z,1.13
2019-03-18T23:55:29.478Z,0.98
